sensor_id;sensor_type;location;lat;lon;timestamp;P1;durP1;ratioP1;P2;durP2;ratioP2
61741;SDS011;47650;49.848;9.620;2023-04-29T00:00:59;351.25;;;40.90;;
61741;SDS011;47650;49.848;9.620;2023-04-29T00:03:24;198.02;;;27.83;;
61741;SDS011;47650;49.848;9.620;2023-04-29T00:05:52;310.13;;;40.63;;
61741;SDS011;47650;49.848;9.620;2023-04-29T00:08:18;276.45;;;34.08;;
61741;SDS011;47650;49.848;9.620;2023-04-29T00:10:46;141.27;;;25.15;;
61741;SDS011;47650;49.848;9.620;2023-04-29T00:13:11;247.25;;;29.27;;
61741;SDS011;47650;49.848;9.620;2023-04-29T00:15:37;109.53;;;24.77;;
61741;SDS011;47650;49.848;9.620;2023-04-29T00:18:04;310.38;;;31.77;;
61741;SDS011;47650;49.848;9.620;2023-04-29T00:20:29;122.65;;;19.08;;
61741;SDS011;47650;49.848;9.620;2023-04-29T00:22:56;129.02;;;17.67;;
61741;SDS011;47650;49.848;9.620;2023-04-29T00:25:23;117.40;;;18.27;;
61741;SDS011;47650;49.848;9.620;2023-04-29T00:27:49;78.82;;;12.38;;
61741;SDS011;47650;49.848;9.620;2023-04-29T00:30:18;83.95;;;15.73;;
61741;SDS011;47650;49.848;9.620;2023-04-29T00:32:44;98.70;;;17.92;;
61741;SDS011;47650;49.848;9.620;2023-04-29T00:35:10;30.52;;;13.25;;
61741;SDS011;47650;49.848;9.620;2023-04-29T00:37:38;24.15;;;13.35;;
61741;SDS011;47650;49.848;9.620;2023-04-29T00:40:05;25.30;;;12.20;;
61741;SDS011;47650;49.848;9.620;2023-04-29T00:42:32;22.55;;;11.70;;
61741;SDS011;47650;49.848;9.620;2023-04-29T00:44:58;20.58;;;11.63;;
61741;SDS011;47650;49.848;9.620;2023-04-29T00:47:23;18.85;;;10.77;;
61741;SDS011;47650;49.848;9.620;2023-04-29T00:49:49;15.02;;;8.60;;
61741;SDS011;47650;49.848;9.620;2023-04-29T00:52:18;12.10;;;7.53;;
61741;SDS011;47650;49.848;9.620;2023-04-29T00:54:45;12.95;;;8.13;;
61741;SDS011;47650;49.848;9.620;2023-04-29T00:57:13;13.82;;;8.32;;
61741;SDS011;47650;49.848;9.620;2023-04-29T00:59:38;7.70;;;6.25;;
61741;SDS011;47650;49.848;9.620;2023-04-29T01:02:05;17.60;;;7.18;;
61741;SDS011;47650;49.848;9.620;2023-04-29T01:04:34;11.70;;;7.90;;
61741;SDS011;47650;49.848;9.620;2023-04-29T01:07:03;19.33;;;7.68;;
61741;SDS011;47650;49.848;9.620;2023-04-29T01:15:11;32.88;;;7.95;;
61741;SDS011;47650;49.848;9.620;2023-04-29T01:18:03;151.27;;;17.88;;
61741;SDS011;47650;49.848;9.620;2023-04-29T01:20:32;103.23;;;16.13;;
61741;SDS011;47650;49.848;9.620;2023-04-29T01:23:02;43.05;;;9.95;;
61741;SDS011;47650;49.848;9.620;2023-04-29T01:25:28;99.50;;;15.30;;
61741;SDS011;47650;49.848;9.620;2023-04-29T01:27:56;279.02;;;20.58;;
61741;SDS011;47650;49.848;9.620;2023-04-29T01:33:28;66.53;;;12.38;;
61741;SDS011;47650;49.848;9.620;2023-04-29T01:36:06;78.30;;;12.02;;
61741;SDS011;47650;49.848;9.620;2023-04-29T01:41:52;148.75;;;13.18;;
61741;SDS011;47650;49.848;9.620;2023-04-29T01:46:52;50.58;;;10.30;;
61741;SDS011;47650;49.848;9.620;2023-04-29T01:49:19;33.75;;;8.43;;
61741;SDS011;47650;49.848;9.620;2023-04-29T01:51:45;33.00;;;10.82;;
61741;SDS011;47650;49.848;9.620;2023-04-29T01:54:10;37.33;;;10.57;;
61741;SDS011;47650;49.848;9.620;2023-04-29T01:56:36;32.15;;;7.40;;
61741;SDS011;47650;49.848;9.620;2023-04-29T01:59:01;27.95;;;9.15;;
61741;SDS011;47650;49.848;9.620;2023-04-29T02:01:33;58.58;;;10.80;;
61741;SDS011;47650;49.848;9.620;2023-04-29T02:03:59;17.35;;;8.20;;
61741;SDS011;47650;49.848;9.620;2023-04-29T02:06:25;72.85;;;12.65;;
61741;SDS011;47650;49.848;9.620;2023-04-29T02:08:50;23.88;;;9.40;;
61741;SDS011;47650;49.848;9.620;2023-04-29T02:11:16;18.55;;;9.45;;
61741;SDS011;47650;49.848;9.620;2023-04-29T02:13:43;24.25;;;9.68;;
61741;SDS011;47650;49.848;9.620;2023-04-29T02:16:16;34.47;;;9.52;;
61741;SDS011;47650;49.848;9.620;2023-04-29T02:18:43;116.22;;;14.68;;
61741;SDS011;47650;49.848;9.620;2023-04-29T02:21:10;52.88;;;11.07;;
61741;SDS011;47650;49.848;9.620;2023-04-29T02:23:36;43.63;;;11.02;;
61741;SDS011;47650;49.848;9.620;2023-04-29T02:26:01;61.95;;;10.73;;
61741;SDS011;47650;49.848;9.620;2023-04-29T02:28:32;93.93;;;11.88;;
61741;SDS011;47650;49.848;9.620;2023-04-29T02:31:00;96.30;;;16.00;;
61741;SDS011;47650;49.848;9.620;2023-04-29T02:33:27;28.80;;;9.18;;
61741;SDS011;47650;49.848;9.620;2023-04-29T02:35:54;117.65;;;12.10;;
61741;SDS011;47650;49.848;9.620;2023-04-29T02:38:20;78.30;;;11.73;;
61741;SDS011;47650;49.848;9.620;2023-04-29T02:40:46;41.83;;;10.65;;
61741;SDS011;47650;49.848;9.620;2023-04-29T02:43:13;56.33;;;8.30;;
61741;SDS011;47650;49.848;9.620;2023-04-29T02:45:39;39.80;;;8.52;;
61741;SDS011;47650;49.848;9.620;2023-04-29T02:48:06;99.93;;;12.07;;
61741;SDS011;47650;49.848;9.620;2023-04-29T02:50:33;39.35;;;8.65;;
61741;SDS011;47650;49.848;9.620;2023-04-29T02:53:04;99.82;;;10.63;;
61741;SDS011;47650;49.848;9.620;2023-04-29T02:55:30;138.68;;;11.95;;
61741;SDS011;47650;49.848;9.620;2023-04-29T02:57:58;169.00;;;15.20;;
61741;SDS011;47650;49.848;9.620;2023-04-29T03:00:25;35.63;;;9.55;;
61741;SDS011;47650;49.848;9.620;2023-04-29T03:02:51;80.28;;;9.05;;
61741;SDS011;47650;49.848;9.620;2023-04-29T03:05:21;110.43;;;12.23;;
61741;SDS011;47650;49.848;9.620;2023-04-29T03:07:54;34.60;;;9.27;;
61741;SDS011;47650;49.848;9.620;2023-04-29T03:10:20;88.72;;;12.20;;
61741;SDS011;47650;49.848;9.620;2023-04-29T03:12:45;30.83;;;7.45;;
61741;SDS011;47650;49.848;9.620;2023-04-29T03:15:11;49.28;;;9.40;;
61741;SDS011;47650;49.848;9.620;2023-04-29T03:17:37;62.33;;;8.45;;
61741;SDS011;47650;49.848;9.620;2023-04-29T03:20:03;72.70;;;10.57;;
61741;SDS011;47650;49.848;9.620;2023-04-29T03:22:29;31.92;;;10.00;;
61741;SDS011;47650;49.848;9.620;2023-04-29T03:24:54;21.80;;;8.27;;
61741;SDS011;47650;49.848;9.620;2023-04-29T03:27:21;11.95;;;6.88;;
61741;SDS011;47650;49.848;9.620;2023-04-29T03:29:47;14.73;;;7.40;;
61741;SDS011;47650;49.848;9.620;2023-04-29T03:32:13;18.90;;;10.23;;
61741;SDS011;47650;49.848;9.620;2023-04-29T03:34:39;8.13;;;6.05;;
61741;SDS011;47650;49.848;9.620;2023-04-29T03:37:05;7.43;;;6.40;;
61741;SDS011;47650;49.848;9.620;2023-04-29T03:39:30;6.88;;;5.63;;
61741;SDS011;47650;49.848;9.620;2023-04-29T03:41:57;9.93;;;6.30;;
61741;SDS011;47650;49.848;9.620;2023-04-29T03:44:23;5.03;;;4.53;;
61741;SDS011;47650;49.848;9.620;2023-04-29T03:46:51;7.60;;;5.60;;
61741;SDS011;47650;49.848;9.620;2023-04-29T03:49:16;9.45;;;7.13;;
61741;SDS011;47650;49.848;9.620;2023-04-29T03:51:43;7.45;;;5.97;;
61741;SDS011;47650;49.848;9.620;2023-04-29T03:54:13;6.65;;;5.75;;
61741;SDS011;47650;49.848;9.620;2023-04-29T03:56:40;7.63;;;5.90;;
61741;SDS011;47650;49.848;9.620;2023-04-29T03:59:07;7.32;;;5.13;;
61741;SDS011;47650;49.848;9.620;2023-04-29T04:01:33;4.78;;;4.28;;
61741;SDS011;47650;49.848;9.620;2023-04-29T04:04:00;5.43;;;4.93;;
61741;SDS011;47650;49.848;9.620;2023-04-29T04:06:25;8.52;;;6.35;;
61741;SDS011;47650;49.848;9.620;2023-04-29T04:08:50;8.45;;;6.30;;
61741;SDS011;47650;49.848;9.620;2023-04-29T04:11:16;8.88;;;6.30;;
61741;SDS011;47650;49.848;9.620;2023-04-29T04:13:42;6.55;;;4.70;;
61741;SDS011;47650;49.848;9.620;2023-04-29T04:16:08;5.10;;;4.47;;
61741;SDS011;47650;49.848;9.620;2023-04-29T04:18:37;7.20;;;5.78;;
61741;SDS011;47650;49.848;9.620;2023-04-29T04:21:10;5.90;;;4.88;;
61741;SDS011;47650;49.848;9.620;2023-04-29T04:23:36;7.20;;;4.28;;
61741;SDS011;47650;49.848;9.620;2023-04-29T04:26:07;6.50;;;4.90;;
61741;SDS011;47650;49.848;9.620;2023-04-29T04:28:32;6.25;;;5.13;;
61741;SDS011;47650;49.848;9.620;2023-04-29T04:30:59;6.68;;;5.50;;
61741;SDS011;47650;49.848;9.620;2023-04-29T04:33:24;8.82;;;6.95;;
61741;SDS011;47650;49.848;9.620;2023-04-29T04:35:51;9.98;;;6.53;;
61741;SDS011;47650;49.848;9.620;2023-04-29T04:38:17;7.50;;;6.50;;
61741;SDS011;47650;49.848;9.620;2023-04-29T04:40:48;8.15;;;6.20;;
61741;SDS011;47650;49.848;9.620;2023-04-29T04:43:16;7.00;;;5.70;;
61741;SDS011;47650;49.848;9.620;2023-04-29T04:45:43;7.70;;;5.57;;
61741;SDS011;47650;49.848;9.620;2023-04-29T04:48:15;6.85;;;6.15;;
61741;SDS011;47650;49.848;9.620;2023-04-29T04:50:40;6.18;;;5.35;;
61741;SDS011;47650;49.848;9.620;2023-04-29T04:56:31;6.20;;;4.50;;
61741;SDS011;47650;49.848;9.620;2023-04-29T04:58:56;8.68;;;6.10;;
61741;SDS011;47650;49.848;9.620;2023-04-29T05:01:21;6.93;;;5.35;;
61741;SDS011;47650;49.848;9.620;2023-04-29T05:03:47;6.45;;;4.88;;
61741;SDS011;47650;49.848;9.620;2023-04-29T05:06:12;6.38;;;5.60;;
61741;SDS011;47650;49.848;9.620;2023-04-29T05:08:44;6.90;;;5.50;;
61741;SDS011;47650;49.848;9.620;2023-04-29T05:11:18;6.30;;;5.70;;
61741;SDS011;47650;49.848;9.620;2023-04-29T05:13:45;7.20;;;5.57;;
61741;SDS011;47650;49.848;9.620;2023-04-29T05:16:12;9.50;;;7.20;;
61741;SDS011;47650;49.848;9.620;2023-04-29T05:18:37;8.85;;;6.68;;
61741;SDS011;47650;49.848;9.620;2023-04-29T05:21:03;8.25;;;7.28;;
61741;SDS011;47650;49.848;9.620;2023-04-29T05:23:28;8.00;;;7.07;;
61741;SDS011;47650;49.848;9.620;2023-04-29T05:25:54;6.68;;;6.07;;
61741;SDS011;47650;49.848;9.620;2023-04-29T05:28:19;7.78;;;6.72;;
61741;SDS011;47650;49.848;9.620;2023-04-29T05:30:45;8.43;;;6.47;;
61741;SDS011;47650;49.848;9.620;2023-04-29T05:33:11;7.10;;;5.45;;
61741;SDS011;47650;49.848;9.620;2023-04-29T05:35:36;6.85;;;6.15;;
61741;SDS011;47650;49.848;9.620;2023-04-29T05:38:02;6.22;;;4.95;;
61741;SDS011;47650;49.848;9.620;2023-04-29T05:40:27;6.55;;;5.72;;
61741;SDS011;47650;49.848;9.620;2023-04-29T05:43:00;8.43;;;5.60;;
61741;SDS011;47650;49.848;9.620;2023-04-29T05:45:27;6.53;;;5.93;;
61741;SDS011;47650;49.848;9.620;2023-04-29T05:47:53;7.30;;;6.60;;
61741;SDS011;47650;49.848;9.620;2023-04-29T05:50:18;7.68;;;6.70;;
61741;SDS011;47650;49.848;9.620;2023-04-29T05:52:43;7.30;;;6.55;;
61741;SDS011;47650;49.848;9.620;2023-04-29T05:55:10;8.57;;;7.68;;
61741;SDS011;47650;49.848;9.620;2023-04-29T05:57:35;7.50;;;6.80;;
61741;SDS011;47650;49.848;9.620;2023-04-29T06:00:00;7.05;;;6.40;;
61741;SDS011;47650;49.848;9.620;2023-04-29T06:02:28;6.95;;;6.25;;
61741;SDS011;47650;49.848;9.620;2023-04-29T06:04:53;7.00;;;6.30;;
61741;SDS011;47650;49.848;9.620;2023-04-29T06:07:21;8.10;;;6.57;;
61741;SDS011;47650;49.848;9.620;2023-04-29T06:09:50;7.80;;;6.70;;
61741;SDS011;47650;49.848;9.620;2023-04-29T06:12:17;7.07;;;6.38;;
61741;SDS011;47650;49.848;9.620;2023-04-29T06:14:43;8.45;;;7.13;;
61741;SDS011;47650;49.848;9.620;2023-04-29T06:17:08;7.95;;;7.13;;
61741;SDS011;47650;49.848;9.620;2023-04-29T06:19:35;9.60;;;7.47;;
61741;SDS011;47650;49.848;9.620;2023-04-29T06:22:00;9.65;;;7.80;;
61741;SDS011;47650;49.848;9.620;2023-04-29T06:24:27;8.70;;;7.90;;
61741;SDS011;47650;49.848;9.620;2023-04-29T06:26:54;9.45;;;7.93;;
61741;SDS011;47650;49.848;9.620;2023-04-29T06:29:19;7.43;;;6.63;;
61741;SDS011;47650;49.848;9.620;2023-04-29T06:31:45;8.30;;;7.40;;
61741;SDS011;47650;49.848;9.620;2023-04-29T06:34:10;7.68;;;6.97;;
61741;SDS011;47650;49.848;9.620;2023-04-29T06:36:37;7.82;;;6.85;;
61741;SDS011;47650;49.848;9.620;2023-04-29T06:39:02;8.38;;;6.97;;
61741;SDS011;47650;49.848;9.620;2023-04-29T06:41:27;6.93;;;6.22;;
61741;SDS011;47650;49.848;9.620;2023-04-29T06:43:54;7.93;;;6.88;;
61741;SDS011;47650;49.848;9.620;2023-04-29T06:46:19;7.20;;;5.80;;
61741;SDS011;47650;49.848;9.620;2023-04-29T06:48:45;7.10;;;6.50;;
61741;SDS011;47650;49.848;9.620;2023-04-29T06:51:10;7.68;;;6.97;;
61741;SDS011;47650;49.848;9.620;2023-04-29T06:53:35;7.15;;;6.07;;
61741;SDS011;47650;49.848;9.620;2023-04-29T06:56:01;6.25;;;5.65;;
61741;SDS011;47650;49.848;9.620;2023-04-29T06:58:26;7.18;;;6.47;;
61741;SDS011;47650;49.848;9.620;2023-04-29T07:00:52;7.55;;;6.22;;
61741;SDS011;47650;49.848;9.620;2023-04-29T07:03:19;8.75;;;5.70;;
61741;SDS011;47650;49.848;9.620;2023-04-29T07:05:45;6.70;;;5.47;;
61741;SDS011;47650;49.848;9.620;2023-04-29T07:08:10;6.78;;;5.25;;
61741;SDS011;47650;49.848;9.620;2023-04-29T07:10:37;5.95;;;5.32;;
61741;SDS011;47650;49.848;9.620;2023-04-29T07:13:04;5.43;;;4.90;;
61741;SDS011;47650;49.848;9.620;2023-04-29T07:15:29;4.95;;;4.40;;
61741;SDS011;47650;49.848;9.620;2023-04-29T07:17:58;5.55;;;4.32;;
61741;SDS011;47650;49.848;9.620;2023-04-29T07:20:25;5.10;;;4.60;;
61741;SDS011;47650;49.848;9.620;2023-04-29T07:22:53;5.22;;;4.72;;
61741;SDS011;47650;49.848;9.620;2023-04-29T07:25:21;4.97;;;4.03;;
61741;SDS011;47650;49.848;9.620;2023-04-29T07:27:47;5.28;;;4.57;;
61741;SDS011;47650;49.848;9.620;2023-04-29T07:30:12;6.55;;;4.07;;
61741;SDS011;47650;49.848;9.620;2023-04-29T07:32:37;4.78;;;4.13;;
61741;SDS011;47650;49.848;9.620;2023-04-29T07:35:03;4.85;;;3.90;;
61741;SDS011;47650;49.848;9.620;2023-04-29T07:37:33;4.03;;;3.60;;
61741;SDS011;47650;49.848;9.620;2023-04-29T07:40:01;3.90;;;3.60;;
61741;SDS011;47650;49.848;9.620;2023-04-29T07:42:27;6.07;;;3.85;;
61741;SDS011;47650;49.848;9.620;2023-04-29T07:44:52;7.35;;;3.45;;
61741;SDS011;47650;49.848;9.620;2023-04-29T07:47:19;3.60;;;3.15;;
61741;SDS011;47650;49.848;9.620;2023-04-29T07:49:44;3.55;;;3.25;;
61741;SDS011;47650;49.848;9.620;2023-04-29T07:52:10;3.65;;;3.35;;
61741;SDS011;47650;49.848;9.620;2023-04-29T07:54:36;3.83;;;3.30;;
61741;SDS011;47650;49.848;9.620;2023-04-29T07:57:03;4.00;;;3.38;;
61741;SDS011;47650;49.848;9.620;2023-04-29T07:59:30;3.70;;;3.20;;
61741;SDS011;47650;49.848;9.620;2023-04-29T08:01:57;3.13;;;2.80;;
61741;SDS011;47650;49.848;9.620;2023-04-29T08:04:22;3.67;;;3.05;;
61741;SDS011;47650;49.848;9.620;2023-04-29T08:06:48;4.35;;;3.65;;
61741;SDS011;47650;49.848;9.620;2023-04-29T08:09:15;3.22;;;2.90;;
61741;SDS011;47650;49.848;9.620;2023-04-29T08:11:43;3.63;;;3.30;;
61741;SDS011;47650;49.848;9.620;2023-04-29T08:14:09;3.47;;;3.17;;
61741;SDS011;47650;49.848;9.620;2023-04-29T08:16:36;3.47;;;2.88;;
61741;SDS011;47650;49.848;9.620;2023-04-29T08:19:02;3.10;;;2.80;;
61741;SDS011;47650;49.848;9.620;2023-04-29T08:21:27;4.40;;;3.25;;
61741;SDS011;47650;49.848;9.620;2023-04-29T08:23:54;4.50;;;2.90;;
61741;SDS011;47650;49.848;9.620;2023-04-29T08:26:30;3.03;;;2.47;;
61741;SDS011;47650;49.848;9.620;2023-04-29T08:29:07;3.53;;;2.78;;
61741;SDS011;47650;49.848;9.620;2023-04-29T08:31:37;2.63;;;2.40;;
61741;SDS011;47650;49.848;9.620;2023-04-29T08:34:10;3.05;;;2.25;;
61741;SDS011;47650;49.848;9.620;2023-04-29T08:36:36;3.15;;;2.30;;
61741;SDS011;47650;49.848;9.620;2023-04-29T08:39:03;3.53;;;2.78;;
61741;SDS011;47650;49.848;9.620;2023-04-29T08:41:40;2.75;;;2.55;;
61741;SDS011;47650;49.848;9.620;2023-04-29T08:44:08;3.40;;;2.55;;
61741;SDS011;47650;49.848;9.620;2023-04-29T08:46:38;3.63;;;3.08;;
61741;SDS011;47650;49.848;9.620;2023-04-29T08:49:05;3.15;;;2.45;;
61741;SDS011;47650;49.848;9.620;2023-04-29T08:51:32;3.33;;;2.88;;
61741;SDS011;47650;49.848;9.620;2023-04-29T08:53:58;3.83;;;2.72;;
61741;SDS011;47650;49.848;9.620;2023-04-29T08:56:23;2.38;;;2.15;;
61741;SDS011;47650;49.848;9.620;2023-04-29T08:58:50;2.55;;;2.35;;
61741;SDS011;47650;49.848;9.620;2023-04-29T09:01:19;3.78;;;2.30;;
61741;SDS011;47650;49.848;9.620;2023-04-29T09:06:14;2.67;;;2.28;;
61741;SDS011;47650;49.848;9.620;2023-04-29T09:08:40;3.05;;;2.35;;
61741;SDS011;47650;49.848;9.620;2023-04-29T09:11:08;2.30;;;2.08;;
61741;SDS011;47650;49.848;9.620;2023-04-29T09:13:36;3.60;;;2.60;;
61741;SDS011;47650;49.848;9.620;2023-04-29T09:16:01;2.40;;;2.15;;
61741;SDS011;47650;49.848;9.620;2023-04-29T09:21:22;2.97;;;2.50;;
61741;SDS011;47650;49.848;9.620;2023-04-29T09:23:54;2.60;;;2.40;;
61741;SDS011;47650;49.848;9.620;2023-04-29T09:26:23;2.95;;;2.30;;
61741;SDS011;47650;49.848;9.620;2023-04-29T09:29:07;4.13;;;3.30;;
61741;SDS011;47650;49.848;9.620;2023-04-29T09:31:42;2.40;;;2.15;;
61741;SDS011;47650;49.848;9.620;2023-04-29T09:34:09;6.68;;;5.15;;
61741;SDS011;47650;49.848;9.620;2023-04-29T09:36:46;3.47;;;2.70;;
61741;SDS011;47650;49.848;9.620;2023-04-29T09:42:00;2.70;;;2.50;;
61741;SDS011;47650;49.848;9.620;2023-04-29T09:44:30;3.13;;;2.60;;
61741;SDS011;47650;49.848;9.620;2023-04-29T09:49:34;3.28;;;2.97;;
61741;SDS011;47650;49.848;9.620;2023-04-29T09:52:04;3.53;;;2.58;;
61741;SDS011;47650;49.848;9.620;2023-04-29T09:54:33;3.58;;;2.50;;
61741;SDS011;47650;49.848;9.620;2023-04-29T09:57:03;2.90;;;2.58;;
61741;SDS011;47650;49.848;9.620;2023-04-29T09:59:30;3.03;;;2.50;;
61741;SDS011;47650;49.848;9.620;2023-04-29T10:02:00;3.50;;;2.67;;
61741;SDS011;47650;49.848;9.620;2023-04-29T10:04:27;3.30;;;2.78;;
61741;SDS011;47650;49.848;9.620;2023-04-29T10:06:58;3.63;;;2.33;;
61741;SDS011;47650;49.848;9.620;2023-04-29T10:09:25;4.65;;;2.30;;
61741;SDS011;47650;49.848;9.620;2023-04-29T10:11:52;2.60;;;2.40;;
61741;SDS011;47650;49.848;9.620;2023-04-29T10:14:19;2.28;;;2.05;;
61741;SDS011;47650;49.848;9.620;2023-04-29T10:17:31;2.55;;;2.10;;
61741;SDS011;47650;49.848;9.620;2023-04-29T10:22:35;2.50;;;2.08;;
61741;SDS011;47650;49.848;9.620;2023-04-29T10:25:17;2.40;;;2.10;;
61741;SDS011;47650;49.848;9.620;2023-04-29T10:27:44;2.63;;;2.40;;
61741;SDS011;47650;49.848;9.620;2023-04-29T10:30:16;2.90;;;2.30;;
61741;SDS011;47650;49.848;9.620;2023-04-29T10:32:42;2.60;;;2.40;;
61741;SDS011;47650;49.848;9.620;2023-04-29T10:35:09;3.40;;;3.10;;
61741;SDS011;47650;49.848;9.620;2023-04-29T10:37:45;2.30;;;2.10;;
61741;SDS011;47650;49.848;9.620;2023-04-29T10:40:23;2.40;;;2.15;;
61741;SDS011;47650;49.848;9.620;2023-04-29T10:43:00;2.50;;;1.80;;
61741;SDS011;47650;49.848;9.620;2023-04-29T10:45:29;2.22;;;2.03;;
61741;SDS011;47650;49.848;9.620;2023-04-29T10:51:16;2.75;;;1.88;;
61741;SDS011;47650;49.848;9.620;2023-04-29T10:53:20;1.83;;;1.70;;
61741;SDS011;47650;49.848;9.620;2023-04-29T10:55:46;2.00;;;1.80;;
61741;SDS011;47650;49.848;9.620;2023-04-29T11:00:59;2.45;;;1.60;;
61741;SDS011;47650;49.848;9.620;2023-04-29T11:04:08;1.80;;;1.70;;
61741;SDS011;47650;49.848;9.620;2023-04-29T11:06:36;1.80;;;1.70;;
61741;SDS011;47650;49.848;9.620;2023-04-29T11:09:13;2.10;;;1.85;;
61741;SDS011;47650;49.848;9.620;2023-04-29T11:11:45;2.35;;;1.80;;
61741;SDS011;47650;49.848;9.620;2023-04-29T11:14:26;2.88;;;2.05;;
61741;SDS011;47650;49.848;9.620;2023-04-29T11:16:55;2.20;;;2.00;;
61741;SDS011;47650;49.848;9.620;2023-04-29T11:19:23;2.88;;;2.25;;
61741;SDS011;47650;49.848;9.620;2023-04-29T11:22:13;2.63;;;2.42;;
61741;SDS011;47650;49.848;9.620;2023-04-29T11:27:32;3.88;;;2.47;;
61741;SDS011;47650;49.848;9.620;2023-04-29T11:30:01;2.70;;;2.30;;
61741;SDS011;47650;49.848;9.620;2023-04-29T11:32:30;3.17;;;2.80;;
61741;SDS011;47650;49.848;9.620;2023-04-29T11:35:07;2.80;;;2.55;;
61741;SDS011;47650;49.848;9.620;2023-04-29T11:37:32;2.60;;;2.40;;
61741;SDS011;47650;49.848;9.620;2023-04-29T11:40:02;2.95;;;2.20;;
61741;SDS011;47650;49.848;9.620;2023-04-29T11:42:27;2.25;;;2.05;;
61741;SDS011;47650;49.848;9.620;2023-04-29T11:44:54;2.65;;;2.45;;
61741;SDS011;47650;49.848;9.620;2023-04-29T11:47:29;2.97;;;1.90;;
61741;SDS011;47650;49.848;9.620;2023-04-29T11:50:09;2.47;;;2.10;;
61741;SDS011;47650;49.848;9.620;2023-04-29T11:52:37;2.70;;;1.92;;
61741;SDS011;47650;49.848;9.620;2023-04-29T11:55:03;2.00;;;1.80;;
61741;SDS011;47650;49.848;9.620;2023-04-29T11:57:30;2.72;;;2.15;;
61741;SDS011;47650;49.848;9.620;2023-04-29T11:59:56;2.05;;;1.80;;
61741;SDS011;47650;49.848;9.620;2023-04-29T12:02:29;1.92;;;1.73;;
61741;SDS011;47650;49.848;9.620;2023-04-29T12:04:55;2.10;;;1.90;;
61741;SDS011;47650;49.848;9.620;2023-04-29T12:07:26;2.00;;;1.80;;
61741;SDS011;47650;49.848;9.620;2023-04-29T12:09:51;1.90;;;1.70;;
61741;SDS011;47650;49.848;9.620;2023-04-29T12:12:19;1.90;;;1.80;;
61741;SDS011;47650;49.848;9.620;2023-04-29T12:14:44;1.80;;;1.70;;
61741;SDS011;47650;49.848;9.620;2023-04-29T12:17:10;1.50;;;1.40;;
61741;SDS011;47650;49.848;9.620;2023-04-29T12:19:36;1.50;;;1.40;;
61741;SDS011;47650;49.848;9.620;2023-04-29T12:22:04;1.65;;;1.40;;
61741;SDS011;47650;49.848;9.620;2023-04-29T12:24:36;4.65;;;3.55;;
61741;SDS011;47650;49.848;9.620;2023-04-29T12:27:03;2.47;;;1.58;;
61741;SDS011;47650;49.848;9.620;2023-04-29T12:29:31;1.67;;;1.58;;
61741;SDS011;47650;49.848;9.620;2023-04-29T12:31:58;2.40;;;1.30;;
61741;SDS011;47650;49.848;9.620;2023-04-29T12:34:29;2.15;;;1.50;;
61741;SDS011;47650;49.848;9.620;2023-04-29T12:36:59;2.58;;;1.83;;
61741;SDS011;47650;49.848;9.620;2023-04-29T12:39:26;2.72;;;1.60;;
61741;SDS011;47650;49.848;9.620;2023-04-29T12:41:58;1.92;;;1.58;;
61741;SDS011;47650;49.848;9.620;2023-04-29T12:44:24;2.15;;;1.90;;
61741;SDS011;47650;49.848;9.620;2023-04-29T12:46:50;2.33;;;1.83;;
61741;SDS011;47650;49.848;9.620;2023-04-29T12:49:19;1.98;;;1.70;;
61741;SDS011;47650;49.848;9.620;2023-04-29T12:51:48;2.85;;;1.88;;
61741;SDS011;47650;49.848;9.620;2023-04-29T12:54:16;5.50;;;1.88;;
61741;SDS011;47650;49.848;9.620;2023-04-29T12:56:42;2.10;;;1.90;;
61741;SDS011;47650;49.848;9.620;2023-04-29T12:59:09;2.00;;;1.80;;
61741;SDS011;47650;49.848;9.620;2023-04-29T13:01:37;2.35;;;2.15;;
61741;SDS011;47650;49.848;9.620;2023-04-29T13:04:11;2.20;;;2.00;;
61741;SDS011;47650;49.848;9.620;2023-04-29T13:06:36;4.03;;;2.10;;
61741;SDS011;47650;49.848;9.620;2023-04-29T13:09:09;1.98;;;1.83;;
61741;SDS011;47650;49.848;9.620;2023-04-29T13:11:36;2.20;;;2.00;;
61741;SDS011;47650;49.848;9.620;2023-04-29T13:14:13;3.90;;;2.25;;
61741;SDS011;47650;49.848;9.620;2023-04-29T13:16:48;1.70;;;1.60;;
61741;SDS011;47650;49.848;9.620;2023-04-29T13:19:16;3.03;;;1.60;;
61741;SDS011;47650;49.848;9.620;2023-04-29T13:21:41;2.50;;;1.77;;
61741;SDS011;47650;49.848;9.620;2023-04-29T13:24:07;2.47;;;1.97;;
61741;SDS011;47650;49.848;9.620;2023-04-29T13:26:38;2.10;;;1.90;;
61741;SDS011;47650;49.848;9.620;2023-04-29T13:29:04;1.85;;;1.75;;
61741;SDS011;47650;49.848;9.620;2023-04-29T13:31:29;2.45;;;1.83;;
61741;SDS011;47650;49.848;9.620;2023-04-29T13:33:55;2.03;;;1.80;;
61741;SDS011;47650;49.848;9.620;2023-04-29T13:36:24;1.98;;;1.85;;
61741;SDS011;47650;49.848;9.620;2023-04-29T13:38:55;2.70;;;1.90;;
61741;SDS011;47650;49.848;9.620;2023-04-29T13:41:27;1.77;;;1.67;;
61741;SDS011;47650;49.848;9.620;2023-04-29T13:43:54;3.25;;;1.60;;
61741;SDS011;47650;49.848;9.620;2023-04-29T13:46:19;2.70;;;1.80;;
61741;SDS011;47650;49.848;9.620;2023-04-29T13:48:47;2.30;;;1.90;;
61741;SDS011;47650;49.848;9.620;2023-04-29T13:51:13;2.97;;;1.80;;
61741;SDS011;47650;49.848;9.620;2023-04-29T13:53:43;4.55;;;2.25;;
61741;SDS011;47650;49.848;9.620;2023-04-29T13:56:09;3.25;;;2.08;;
61741;SDS011;47650;49.848;9.620;2023-04-29T13:58:36;2.25;;;1.85;;
61741;SDS011;47650;49.848;9.620;2023-04-29T14:01:04;1.80;;;1.50;;
61741;SDS011;47650;49.848;9.620;2023-04-29T14:03:30;1.80;;;1.60;;
61741;SDS011;47650;49.848;9.620;2023-04-29T14:05:56;3.45;;;2.05;;
61741;SDS011;47650;49.848;9.620;2023-04-29T14:08:27;1.60;;;1.50;;
61741;SDS011;47650;49.848;9.620;2023-04-29T14:10:52;1.98;;;1.77;;
61741;SDS011;47650;49.848;9.620;2023-04-29T14:13:19;2.72;;;1.63;;
61741;SDS011;47650;49.848;9.620;2023-04-29T14:15:45;2.28;;;1.50;;
61741;SDS011;47650;49.848;9.620;2023-04-29T14:18:12;2.22;;;1.75;;
61741;SDS011;47650;49.848;9.620;2023-04-29T14:20:38;4.05;;;2.50;;
61741;SDS011;47650;49.848;9.620;2023-04-29T14:23:04;2.70;;;1.55;;
61741;SDS011;47650;49.848;9.620;2023-04-29T14:25:30;1.73;;;1.63;;
61741;SDS011;47650;49.848;9.620;2023-04-29T14:27:56;1.98;;;1.75;;
61741;SDS011;47650;49.848;9.620;2023-04-29T14:30:21;2.25;;;2.05;;
61741;SDS011;47650;49.848;9.620;2023-04-29T14:32:48;2.00;;;1.80;;
61741;SDS011;47650;49.848;9.620;2023-04-29T14:35:14;2.30;;;1.80;;
61741;SDS011;47650;49.848;9.620;2023-04-29T14:37:39;1.80;;;1.60;;
61741;SDS011;47650;49.848;9.620;2023-04-29T14:40:05;2.10;;;1.90;;
61741;SDS011;47650;49.848;9.620;2023-04-29T14:42:31;2.10;;;1.70;;
61741;SDS011;47650;49.848;9.620;2023-04-29T14:44:58;2.00;;;1.80;;
61741;SDS011;47650;49.848;9.620;2023-04-29T14:47:23;2.70;;;1.75;;
61741;SDS011;47650;49.848;9.620;2023-04-29T14:49:49;2.47;;;1.95;;
61741;SDS011;47650;49.848;9.620;2023-04-29T14:52:14;2.38;;;1.95;;
61741;SDS011;47650;49.848;9.620;2023-04-29T14:54:41;2.25;;;1.70;;
61741;SDS011;47650;49.848;9.620;2023-04-29T14:57:07;2.00;;;1.80;;
61741;SDS011;47650;49.848;9.620;2023-04-29T14:59:34;2.63;;;1.77;;
61741;SDS011;47650;49.848;9.620;2023-04-29T15:02:00;1.70;;;1.50;;
61741;SDS011;47650;49.848;9.620;2023-04-29T15:04:25;2.75;;;2.05;;
61741;SDS011;47650;49.848;9.620;2023-04-29T15:06:51;1.95;;;1.80;;
61741;SDS011;47650;49.848;9.620;2023-04-29T15:09:17;1.80;;;1.70;;
61741;SDS011;47650;49.848;9.620;2023-04-29T15:11:49;2.92;;;1.80;;
61741;SDS011;47650;49.848;9.620;2023-04-29T15:14:15;2.17;;;1.65;;
61741;SDS011;47650;49.848;9.620;2023-04-29T15:16:43;1.77;;;1.63;;
61741;SDS011;47650;49.848;9.620;2023-04-29T15:19:08;3.42;;;1.60;;
61741;SDS011;47650;49.848;9.620;2023-04-29T15:21:35;1.75;;;1.65;;
61741;SDS011;47650;49.848;9.620;2023-04-29T15:24:01;2.97;;;1.70;;
61741;SDS011;47650;49.848;9.620;2023-04-29T15:26:27;1.98;;;1.65;;